Airfield :
LOGIN :

Register | Disclaimer

   EN    FR    IT 

 










Legend :    VFR   Marginal VFR   IFR   Intensive IFR   Very Intensive IFR
Visi :
Ceiling :
>= 8 km
>= 3000ft
5 to 8 km
1000 to 3000 ft
1500m to 5 km
500 to 1000 ft
800 to 1500m
200 to 500 ft
< 800m
< 200 ft
Symbols :   Thunderstorms  Fog  Heavy snow  Heavy precipitations  Wind > 20 kt
SIGMETs :     Misc.  Thunderstorms  Icing  Turbulence  Mountain Waves  Volcanic Ashes






- Airport Elevation : 1910 ft
- IATA code : RDZ


LFCR - Rodez

CURRENT METAR :
  • 212230Z AUTO VRB03KT CAVOK 02/M04 Q1019 NOSIG

EXPIRED METARs :
  • 212200Z AUTO 36004KT 330V050 CAVOK 03/M04 Q1019 NOSIG
  • 212130Z AUTO 33006KT CAVOK 04/M04 Q1019 NOSIG
  • 212100Z AUTO 34004KT CAVOK 04/M04 Q1019 NOSIG
  • 212030Z AUTO 36002KT CAVOK 04/M04 Q1019 NOSIG
  • 212000Z AUTO 34004KT 320V020 CAVOK 04/M04 Q1019 NOSIG
  • 211930Z AUTO 35004KT CAVOK 05/M04 Q1018 NOSIG
  • 211830Z AUTO 02010KT 350V050 CAVOK 07/M05 Q1018 NOSIG
  • 211800Z AUTO 02009KT 350V060 CAVOK 08/M04 Q1018 NOSIG

TAF TAF LFCR
Valid from the 21 at 18:00 until the 22 at 18:00 UTC


211700Z 2118/2218 02010KT CAVOK
TEMPO 2118/2120 BKN045
BECMG 2119/2121 33007KT
BECMG 2210/2212 34012KT
TEMPO 2214/2217 36015G26KT



MET'MAP, your aeronautical weather chart ! - Copyright ORBIFLY December 2007 - Disclaimer

ORBIFLY MET'MAP TEAM :

Programming & Development : Alexandra Zaïnal
Original concept : Baudouin d'Aumeries
Technical & hardware support : Manuel Goepfert
Assistance : Marc-Olivier Méhu




SOURCES & CREDITS :

   NOAA